createdAt,value
2022-11-24T00:01:03.972Z,92630.91
2022-11-24T00:03:30.809Z,92631.22
2022-11-24T00:06:02.840Z,92634.88
2022-11-24T00:08:29.541Z,92637.91
2022-11-24T00:10:56.264Z,92630.41
2022-11-24T00:13:22.987Z,92640.75
2022-11-24T00:15:49.710Z,92635.97
2022-11-24T00:18:16.397Z,92640.75
2022-11-24T00:20:43.106Z,92636.94
2022-11-24T00:23:09.805Z,92640.06
2022-11-24T00:25:36.693Z,92652.19
2022-11-24T00:28:03.431Z,92647.75
2022-11-24T00:30:30.200Z,92642.66
2022-11-24T00:32:56.917Z,92643.31
2022-11-24T00:35:23.701Z,92636.91
2022-11-24T00:37:50.377Z,92643.13
2022-11-24T00:40:17.177Z,92644.34
2022-11-24T00:42:43.908Z,92657.75
2022-11-24T00:45:14.145Z,92660.78
2022-11-24T00:47:41.093Z,92655.88
2022-11-24T00:50:08.076Z,92649.69
2022-11-24T00:52:34.777Z,92651.94
2022-11-24T00:55:01.500Z,92653.38
2022-11-24T00:57:28.171Z,92650.81
2022-11-24T00:59:54.844Z,92653.69
2022-11-24T01:02:21.584Z,92657.69
2022-11-24T01:04:48.327Z,92655.47
2022-11-24T01:07:15.079Z,92660.72
2022-11-24T01:09:43.269Z,92650.66
2022-11-24T01:12:09.968Z,92654.16
2022-11-24T01:14:36.862Z,92660.03
2022-11-24T01:17:04.196Z,92661.16
2022-11-24T01:19:30.897Z,92654.66
2022-11-24T01:21:57.612Z,92661.66
2022-11-24T01:24:24.282Z,92660.53
2022-11-24T01:26:51.033Z,92656.06
2022-11-24T01:29:17.758Z,92647.47
2022-11-24T01:31:44.515Z,92651.59
2022-11-24T01:34:11.261Z,92652.66
2022-11-24T01:36:38.005Z,92646.19
2022-11-24T01:39:04.966Z,92640.47
2022-11-24T01:41:31.695Z,92655.59
2022-11-24T01:43:58.395Z,92654.03
2022-11-24T01:46:36.179Z,92648.44
2022-11-24T01:49:09.061Z,92657.03
2022-11-24T01:51:43.442Z,92656.56
2022-11-24T01:54:17.758Z,92647.00
2022-11-24T01:56:46.839Z,92643.03
2022-11-24T01:59:14.749Z,92652.56
2022-11-24T02:01:41.477Z,92647.00
2022-11-24T02:04:11.674Z,92646.50
2022-11-24T02:06:40.104Z,92652.84
2022-11-24T02:09:06.728Z,92653.66
2022-11-24T02:11:39.170Z,92646.66
2022-11-24T02:14:07.955Z,92650.81
2022-11-24T02:16:34.706Z,92650.97
2022-11-24T02:19:02.469Z,92657.03
2022-11-24T02:21:29.169Z,92654.31
2022-11-24T02:24:21.594Z,92645.41
2022-11-24T02:26:49.717Z,92654.97
2022-11-24T02:29:16.654Z,92651.47
2022-11-24T02:31:51.456Z,92654.94
2022-11-24T02:34:18.162Z,92655.59
2022-11-24T02:36:44.836Z,92655.91
2022-11-24T02:39:12.963Z,92658.94
2022-11-24T02:41:46.548Z,92663.56
2022-11-24T02:44:15.756Z,92663.91
2022-11-24T02:46:42.520Z,92666.16
2022-11-24T02:49:09.272Z,92667.09
2022-11-24T02:51:36.053Z,92669.00
2022-11-24T02:54:02.840Z,92661.03
2022-11-24T02:56:29.667Z,92656.09
2022-11-24T02:58:56.376Z,92662.28
2022-11-24T03:01:23.136Z,92650.97
2022-11-24T03:03:49.859Z,92659.25
2022-11-24T03:06:16.550Z,92667.53
2022-11-24T03:08:44.028Z,92661.00
2022-11-24T03:11:10.701Z,92662.25
2022-11-24T03:13:37.428Z,92673.09
2022-11-24T03:16:08.515Z,92661.97
2022-11-24T03:18:35.217Z,92661.97
2022-11-24T03:21:01.923Z,92665.31
2022-11-24T03:23:28.616Z,92676.00
2022-11-24T03:25:55.302Z,92674.25
2022-11-24T03:28:22.060Z,92677.44
2022-11-24T03:30:49.405Z,92675.50
2022-11-24T03:33:16.116Z,92683.16
2022-11-24T03:35:42.933Z,92686.97
2022-11-24T03:38:09.644Z,92687.00
2022-11-24T03:40:36.365Z,92696.75
2022-11-24T03:43:03.083Z,92697.41
2022-11-24T03:45:45.566Z,92699.16
2022-11-24T03:48:14.117Z,92701.88
2022-11-24T03:50:40.853Z,92701.13
2022-11-24T03:53:07.565Z,92709.88
2022-11-24T03:55:34.271Z,92719.28
2022-11-24T03:58:00.961Z,92716.09
2022-11-24T04:00:28.103Z,92719.78
2022-11-24T04:02:54.819Z,92723.59
2022-11-24T04:05:21.592Z,92716.56
2022-11-24T04:07:48.317Z,92715.31
2022-11-24T04:10:15.165Z,92726.78
2022-11-24T04:12:44.630Z,92722.78
2022-11-24T04:15:14.240Z,92721.84
2022-11-24T04:17:41.053Z,92720.91
2022-11-24T04:20:08.763Z,92728.88
2022-11-24T04:22:35.889Z,92731.75
2022-11-24T04:25:03.468Z,92736.19
2022-11-24T04:27:30.373Z,92741.00
2022-11-24T04:29:57.102Z,92749.28
2022-11-24T04:32:23.809Z,92755.66
2022-11-24T04:34:50.504Z,92757.41
2022-11-24T04:37:17.274Z,92757.91
2022-11-24T04:39:44.947Z,92761.25
2022-11-24T04:42:12.064Z,92757.28
2022-11-24T04:44:39.020Z,92752.78
2022-11-24T04:47:05.862Z,92756.28
2022-11-24T04:49:32.734Z,92763.00
2022-11-24T04:51:59.819Z,92756.91
2022-11-24T04:54:26.543Z,92752.75
2022-11-24T04:56:53.512Z,92756.09
2022-11-24T04:59:20.309Z,92757.06
2022-11-24T05:01:47.352Z,92761.31
2022-11-24T05:04:15.245Z,92763.53
2022-11-24T05:06:42.404Z,92757.63
2022-11-24T05:09:09.547Z,92760.66
2022-11-24T05:11:36.347Z,92761.34
2022-11-24T05:14:03.162Z,92762.19
2022-11-24T05:16:29.923Z,92770.00
2022-11-24T05:18:56.817Z,92768.25
2022-11-24T05:21:23.614Z,92770.19
2022-11-24T05:23:50.420Z,92771.78
2022-11-24T05:26:17.152Z,92772.91
2022-11-24T05:28:43.900Z,92779.59
2022-11-24T05:31:10.734Z,92772.41
2022-11-24T05:33:38.340Z,92780.56
2022-11-24T05:36:06.646Z,92782.16
2022-11-24T05:38:33.899Z,92787.41
2022-11-24T05:41:04.048Z,92791.72
2022-11-24T05:43:30.873Z,92789.50
2022-11-24T05:46:01.668Z,92794.13
2022-11-24T05:48:28.883Z,92795.44
2022-11-24T05:50:57.159Z,92798.75
2022-11-24T05:53:25.714Z,92796.53
2022-11-24T05:55:52.488Z,92797.34
2022-11-24T05:58:19.258Z,92793.19
2022-11-24T06:00:45.981Z,92797.47
2022-11-24T06:03:12.885Z,92792.84
2022-11-24T06:05:39.734Z,92793.28
2022-11-24T06:08:06.505Z,92798.91
2022-11-24T06:10:33.220Z,92807.22
2022-11-24T06:13:00.009Z,92813.78
2022-11-24T06:15:26.805Z,92813.28
2022-11-24T06:17:56.619Z,92808.19
2022-11-24T06:20:28.283Z,92804.84
2022-11-24T06:22:58.029Z,92812.66
2022-11-24T06:25:24.779Z,92813.28
2022-11-24T06:27:51.459Z,92820.00
2022-11-24T06:30:18.317Z,92820.63
2022-11-24T06:32:49.304Z,92824.16
2022-11-24T06:35:16.584Z,92830.69
2022-11-24T06:37:43.281Z,92836.91
2022-11-24T06:40:10.387Z,92837.06
2022-11-24T06:42:37.681Z,92845.50
2022-11-24T06:45:09.012Z,92849.47
2022-11-24T06:47:36.850Z,92856.97
2022-11-24T06:50:04.034Z,92853.94
2022-11-24T06:52:30.758Z,92862.88
2022-11-24T06:54:57.586Z,92867.63
2022-11-24T06:57:24.514Z,92872.72
2022-11-24T06:59:51.354Z,92876.69
2022-11-24T07:02:18.085Z,92874.13
2022-11-24T07:04:44.884Z,92874.44
2022-11-24T07:07:11.735Z,92879.72
2022-11-24T07:09:38.517Z,92888.50
2022-11-24T07:12:06.056Z,92893.13
2022-11-24T07:14:33.649Z,92900.44
2022-11-24T07:17:02.520Z,92900.28
2022-11-24T07:19:29.372Z,92910.09
2022-11-24T07:21:56.197Z,92911.56
2022-11-24T07:24:22.931Z,92904.84
2022-11-24T07:26:49.660Z,92911.44
2022-11-24T07:29:16.528Z,92910.78
2022-11-24T07:31:43.522Z,92907.44
2022-11-24T07:34:10.536Z,92915.91
2022-11-24T07:36:37.294Z,92917.19
2022-11-24T07:39:06.967Z,92914.72
2022-11-24T07:41:33.771Z,92918.31
2022-11-24T07:44:00.602Z,92915.00
2022-11-24T07:46:27.395Z,92909.00
2022-11-24T07:48:54.218Z,92920.56
2022-11-24T07:51:20.884Z,92920.91
2022-11-24T07:53:47.676Z,92930.09
2022-11-24T07:56:14.533Z,92932.56
2022-11-24T07:58:41.401Z,92939.44
2022-11-24T08:01:16.716Z,92944.81
2022-11-24T08:03:43.796Z,92946.63
2022-11-24T08:06:32.258Z,92955.50
2022-11-24T08:08:58.544Z,92959.75
2022-11-24T08:11:25.505Z,92966.72
2022-11-24T08:13:52.215Z,92973.88
2022-11-24T08:16:19.742Z,92982.56
2022-11-24T08:18:54.096Z,92976.50
2022-11-24T08:21:23.445Z,92980.22
2022-11-24T08:23:54.286Z,92984.03
2022-11-24T08:26:21.188Z,92988.53
2022-11-24T08:28:48.270Z,92991.88
2022-11-24T08:31:18.848Z,92997.31
2022-11-24T08:33:46.518Z,93001.78
2022-11-24T08:36:18.514Z,93009.88
2022-11-24T08:38:45.915Z,93006.97
2022-11-24T08:41:15.004Z,93014.25
2022-11-24T08:43:42.050Z,93010.88
2022-11-24T08:46:11.368Z,93026.91
2022-11-24T08:48:38.504Z,93027.56
2022-11-24T08:51:13.170Z,93032.56
2022-11-24T08:53:40.744Z,93028.09
2022-11-24T08:56:09.183Z,93030.16
2022-11-24T08:58:36.533Z,93037.53
2022-11-24T09:01:05.923Z,93040.25
2022-11-24T09:03:32.751Z,93036.97
2022-11-24T09:05:59.482Z,93032.31
2022-11-24T09:08:26.288Z,93036.56
2022-11-24T09:10:52.973Z,93042.63
2022-11-24T09:13:19.713Z,93039.53
2022-11-24T09:15:46.574Z,93033.41
2022-11-24T09:18:13.351Z,93044.06
2022-11-24T09:20:40.706Z,93030.38
2022-11-24T09:23:07.433Z,93030.22
2022-11-24T09:25:35.491Z,93030.69
2022-11-24T09:28:02.563Z,93033.81
2022-11-24T09:30:29.492Z,93028.34
2022-11-24T09:32:57.020Z,93023.75
2022-11-24T09:35:24.792Z,93031.53
2022-11-24T09:37:51.552Z,93026.44
2022-11-24T09:40:18.705Z,93037.72
2022-11-24T09:43:02.897Z,93031.03
2022-11-24T09:46:04.318Z,93032.78
2022-11-24T09:48:35.181Z,93040.16
2022-11-24T09:51:04.338Z,93031.41
2022-11-24T09:53:49.505Z,93036.66
2022-11-24T09:56:21.960Z,93036.72
2022-11-24T09:58:52.268Z,93037.66
2022-11-24T10:01:29.991Z,93038.69
2022-11-24T10:04:02.568Z,93032.53
2022-11-24T10:06:44.641Z,93031.06
2022-11-24T10:09:42.353Z,93039.72
2022-11-24T10:12:21.349Z,93041.31
2022-11-24T10:14:50.922Z,93047.75
2022-11-24T10:17:26.980Z,93040.53
2022-11-24T10:20:09.991Z,93042.44
2022-11-24T10:22:43.407Z,93044.84
2022-11-24T10:25:17.547Z,93051.00
2022-11-24T10:27:47.195Z,93041.59
2022-11-24T10:30:20.140Z,93059.19
2022-11-24T10:32:49.844Z,93055.69
2022-11-24T10:35:22.533Z,93056.44
2022-11-24T10:37:58.403Z,93057.66
2022-11-24T10:43:21.789Z,93039.97
2022-11-24T10:45:48.646Z,93045.66
2022-11-24T10:48:22.539Z,93038.13
2022-11-24T10:50:49.327Z,93037.34
2022-11-24T10:53:29.647Z,93036.91
2022-11-24T10:55:56.476Z,93036.13
2022-11-24T10:58:38.022Z,93035.94
2022-11-24T11:01:14.681Z,93029.41
2022-11-24T11:03:48.026Z,93030.50
2022-11-24T11:06:26.473Z,93046.81
2022-11-24T11:09:17.862Z,93038.50
2022-11-24T11:11:47.121Z,93042.34
2022-11-24T11:14:31.278Z,93048.50
2022-11-24T11:16:59.042Z,93050.00
2022-11-24T11:19:50.812Z,93051.25
2022-11-24T11:22:26.120Z,93050.81
2022-11-24T11:25:03.993Z,93051.47
2022-11-24T11:27:30.847Z,93047.13
2022-11-24T11:35:51.347Z,93059.69
2022-11-24T11:38:18.760Z,93056.16
2022-11-24T11:40:49.999Z,93060.66
2022-11-24T11:43:29.155Z,93062.34
2022-11-24T11:46:11.895Z,93077.63
2022-11-24T11:48:43.714Z,93070.19
2022-11-24T11:52:02.325Z,93068.00
2022-11-24T11:55:02.798Z,93064.78
2022-11-24T11:57:37.744Z,93060.91
2022-11-24T12:00:10.490Z,93062.34
2022-11-24T12:02:48.598Z,93064.66
2022-11-24T12:05:41.629Z,93063.56
2022-11-24T12:08:21.660Z,93073.38
2022-11-24T12:10:57.490Z,93076.38
2022-11-24T12:13:24.358Z,93077.72
2022-11-24T12:16:07.746Z,93070.13
2022-11-24T12:19:04.963Z,93070.66
2022-11-24T12:21:36.151Z,93074.03
2022-11-24T12:24:11.928Z,93076.09
2022-11-24T12:26:58.179Z,93074.84
2022-11-24T12:29:48.159Z,93072.88
2022-11-24T12:32:34.089Z,93080.59
2022-11-24T12:35:06.609Z,93073.78
2022-11-24T12:38:00.354Z,93078.16
2022-11-24T12:40:51.949Z,93083.16
2022-11-24T12:43:28.339Z,93076.59
2022-11-24T12:46:00.310Z,93075.84
2022-11-24T12:48:29.112Z,93079.06
2022-11-24T12:50:56.887Z,93080.66
2022-11-24T12:53:26.948Z,93072.38
2022-11-24T12:55:54.757Z,93085.00
2022-11-24T12:58:51.949Z,93078.75
2022-11-24T13:01:58.645Z,93076.34
2022-11-24T13:04:34.781Z,93069.50
2022-11-24T13:07:26.505Z,93068.69
2022-11-24T13:10:47.000Z,93088.47
2022-11-24T13:13:15.055Z,93083.53
2022-11-24T13:18:47.440Z,93092.81
2022-11-24T13:21:33.047Z,93098.81
2022-11-24T13:24:27.224Z,93095.25
2022-11-24T13:27:14.259Z,93089.03
2022-11-24T13:29:42.072Z,93101.06
2022-11-24T13:32:08.851Z,93096.41
2022-11-24T13:34:41.613Z,93108.38
2022-11-24T13:37:27.309Z,93109.38
2022-11-24T13:40:13.534Z,93097.41
2022-11-24T13:42:56.252Z,93112.16
2022-11-24T13:45:46.858Z,93102.88
2022-11-24T13:48:20.105Z,93109.38
2022-11-24T13:50:50.324Z,93114.09
2022-11-24T13:53:45.961Z,93102.31
2022-11-24T13:56:12.686Z,93104.50
2022-11-24T13:58:42.499Z,93116.59
2022-11-24T14:01:12.178Z,93123.06
2022-11-24T14:04:07.072Z,93122.00
2022-11-24T14:06:34.920Z,93135.38
2022-11-24T14:09:20.519Z,93144.78
2022-11-24T14:11:59.775Z,93147.06
2022-11-24T14:14:26.764Z,93148.50
2022-11-24T14:17:14.694Z,93148.00
2022-11-24T14:19:42.538Z,93150.69
2022-11-24T14:22:21.749Z,93159.94
2022-11-24T14:24:56.923Z,93150.97
2022-11-24T14:27:28.809Z,93151.78
2022-11-24T14:30:03.589Z,93158.63
2022-11-24T14:32:30.492Z,93157.53
2022-11-24T14:34:57.382Z,93152.28
2022-11-24T14:37:24.269Z,93154.41
2022-11-24T14:39:51.060Z,93153.16
2022-11-24T14:42:23.258Z,93155.28
2022-11-24T14:44:59.131Z,93151.72
2022-11-24T14:47:31.994Z,93149.66
2022-11-24T14:50:08.665Z,93139.09
2022-11-24T14:52:35.626Z,93144.34
2022-11-24T14:55:22.095Z,93148.50
2022-11-24T14:57:49.241Z,93139.09
2022-11-24T15:00:25.185Z,93144.22
2022-11-24T15:03:07.488Z,93139.41
2022-11-24T15:05:58.467Z,93157.75
2022-11-24T15:08:26.857Z,93165.41
2022-11-24T15:10:59.627Z,93158.00
2022-11-24T15:13:26.828Z,93164.84
2022-11-24T15:16:02.121Z,93172.63
2022-11-24T15:18:44.445Z,93178.41
2022-11-24T15:21:17.451Z,93168.19
2022-11-24T15:24:04.827Z,93174.00
2022-11-24T15:26:36.691Z,93184.31
2022-11-24T15:29:06.776Z,93182.03
2022-11-24T15:31:33.663Z,93169.84
2022-11-24T15:34:00.486Z,93181.94
2022-11-24T15:36:27.294Z,93185.75
2022-11-24T15:38:54.044Z,93190.66
2022-11-24T15:41:22.405Z,93188.22
2022-11-24T15:43:49.238Z,93188.06
2022-11-24T15:46:16.400Z,93194.78
2022-11-24T15:48:43.235Z,93192.09
2022-11-24T15:51:13.428Z,93199.06
2022-11-24T15:53:44.392Z,93198.78
2022-11-24T15:56:26.182Z,93196.09
2022-11-24T15:58:53.230Z,93199.31
2022-11-24T16:01:21.252Z,93198.44
2022-11-24T16:03:49.006Z,93205.78
2022-11-24T16:06:24.585Z,93210.06
2022-11-24T16:08:52.708Z,93208.91
2022-11-24T16:11:19.506Z,93213.84
2022-11-24T16:13:51.988Z,93220.50
2022-11-24T16:16:20.446Z,93217.13
2022-11-24T16:18:47.238Z,93212.03
2022-11-24T16:21:14.227Z,93217.28
2022-11-24T16:23:41.009Z,93221.00
2022-11-24T16:26:07.862Z,93212.53
2022-11-24T16:28:34.763Z,93217.28
2022-11-24T16:31:01.742Z,93213.63
2022-11-24T16:33:29.978Z,93220.84
2022-11-24T16:35:56.798Z,93217.94
2022-11-24T16:38:23.785Z,93216.97
2022-11-24T16:40:52.571Z,93214.59
2022-11-24T16:43:19.335Z,93214.47
2022-11-24T16:45:46.275Z,93224.97
2022-11-24T16:48:13.122Z,93221.31
2022-11-24T16:50:39.908Z,93225.09
2022-11-24T16:53:06.690Z,93222.03
2022-11-24T16:55:33.454Z,93230.00
2022-11-24T16:58:03.677Z,93230.69
2022-11-24T17:00:30.470Z,93234.31
2022-11-24T17:02:57.309Z,93234.16
2022-11-24T17:05:24.531Z,93237.13
2022-11-24T17:07:51.340Z,93239.13
2022-11-24T17:10:18.100Z,93245.88
2022-11-24T17:12:44.969Z,93237.94
2022-11-24T17:20:45.563Z,93228.59
2022-11-24T17:23:12.337Z,93242.69
2022-11-24T17:25:39.109Z,93232.31
2022-11-24T17:28:05.838Z,93241.47
2022-11-24T17:30:32.824Z,93244.66
2022-11-24T17:32:59.595Z,93242.09
2022-11-24T17:35:26.388Z,93243.28
2022-11-24T17:37:53.158Z,93245.69
2022-11-24T17:40:28.459Z,93247.44
2022-11-24T17:42:59.838Z,93254.66
2022-11-24T17:45:27.624Z,93244.75
2022-11-24T17:47:55.055Z,93252.53
2022-11-24T17:50:25.630Z,93243.66
2022-11-24T17:52:53.263Z,93251.81
2022-11-24T17:55:20.190Z,93262.00
2022-11-24T17:57:46.965Z,93261.38
2022-11-24T18:00:14.366Z,93252.25
2022-11-24T18:02:41.916Z,93247.81
2022-11-24T18:05:09.081Z,93250.66
2022-11-24T18:07:36.751Z,93260.47
2022-11-24T18:10:04.078Z,93255.53
2022-11-24T18:12:30.858Z,93248.53
2022-11-24T18:14:57.622Z,93243.16
2022-11-24T18:17:24.620Z,93255.22
2022-11-24T18:19:51.371Z,93259.50
2022-11-24T18:22:21.050Z,93262.66
2022-11-24T18:24:53.983Z,93259.13
2022-11-24T18:27:20.884Z,93258.25
2022-11-24T18:29:50.878Z,93256.50
2022-11-24T18:32:20.151Z,93260.66
2022-11-24T18:34:46.892Z,93265.91
2022-11-24T18:37:14.957Z,93267.63
2022-11-24T18:39:42.374Z,93270.88
2022-11-24T18:42:10.037Z,93273.28
2022-11-24T18:44:37.408Z,93276.34
2022-11-24T18:47:04.490Z,93263.72
2022-11-24T18:49:31.990Z,93261.97
2022-11-24T18:51:59.349Z,93267.75
2022-11-24T18:54:29.500Z,93267.38
2022-11-24T18:57:01.733Z,93258.38
2022-11-24T18:59:29.943Z,93266.09
2022-11-24T19:01:58.083Z,93243.44
2022-11-24T19:04:26.313Z,93268.66
2022-11-24T19:06:53.381Z,93263.41
2022-11-24T19:09:22.603Z,93261.38
2022-11-24T19:11:49.897Z,93257.72
2022-11-24T19:14:17.940Z,93257.22
2022-11-24T19:16:47.730Z,93265.28
2022-11-24T19:19:15.164Z,93278.97
2022-11-24T19:21:41.974Z,93268.13
2022-11-24T19:24:10.202Z,93257.41
2022-11-24T19:26:37.563Z,93277.28
2022-11-24T19:29:05.746Z,93267.88
2022-11-24T19:31:33.758Z,93278.75
2022-11-24T19:34:02.906Z,93273.50
2022-11-24T19:36:29.891Z,93267.47
2022-11-24T19:38:57.765Z,93266.53
2022-11-24T19:41:27.358Z,93278.34
2022-11-24T19:43:54.844Z,93284.75
2022-11-24T19:46:22.962Z,93285.81
2022-11-24T19:48:50.901Z,93291.09
2022-11-24T19:51:20.373Z,93286.63
2022-11-24T19:53:47.771Z,93289.97
2022-11-24T19:56:20.154Z,93278.84
2022-11-24T19:58:47.980Z,93288.53
2022-11-24T20:01:24.737Z,93291.72
2022-11-24T20:04:13.190Z,93292.22
2022-11-24T20:06:41.869Z,93297.22
2022-11-24T20:09:10.615Z,93301.22
2022-11-24T20:11:37.897Z,93301.44
2022-11-24T20:14:05.268Z,93294.59
2022-11-24T20:16:33.406Z,93305.31
2022-11-24T20:19:06.369Z,93307.59
2022-11-24T20:21:34.351Z,93310.41
2022-11-24T20:24:03.858Z,93314.75
2022-11-24T20:26:36.104Z,93312.28
2022-11-24T20:29:04.241Z,93321.53
2022-11-24T20:31:36.934Z,93312.72
2022-11-24T20:34:05.654Z,93310.78
2022-11-24T20:36:33.994Z,93312.16
2022-11-24T20:39:02.206Z,93315.63
2022-11-24T20:41:31.916Z,93316.69
2022-11-24T20:44:00.954Z,93324.22
2022-11-24T20:46:30.134Z,93330.13
2022-11-24T20:48:57.945Z,93328.00
2022-11-24T20:51:30.330Z,93327.31
2022-11-24T20:53:59.632Z,93330.69
2022-11-24T20:56:28.712Z,93329.06
2022-11-24T20:58:56.443Z,93335.25
2022-11-24T21:01:29.137Z,93340.34
2022-11-24T21:03:58.762Z,93353.38
2022-11-24T21:06:26.527Z,93339.44
2022-11-24T21:08:53.301Z,93351.13
2022-11-24T21:11:21.106Z,93349.25
2022-11-24T21:13:48.949Z,93347.13
2022-11-24T21:16:24.232Z,93350.88
2022-11-24T21:18:52.153Z,93344.47
2022-11-24T21:21:20.189Z,93345.69
2022-11-24T21:23:47.600Z,93363.03
2022-11-24T21:26:17.217Z,93356.59
2022-11-24T21:28:45.873Z,93351.34
2022-11-24T21:31:15.332Z,93339.81
2022-11-24T21:33:44.902Z,93343.09
2022-11-24T21:36:14.636Z,93344.00
2022-11-24T21:38:42.681Z,93349.25
2022-11-24T21:41:10.929Z,93346.31
2022-11-24T21:43:38.642Z,93347.78
2022-11-24T21:46:07.223Z,93354.88
2022-11-24T21:48:35.766Z,93350.44
2022-11-24T21:51:04.177Z,93345.47
2022-11-24T21:53:35.815Z,93341.34
2022-11-24T21:56:07.728Z,93348.03
2022-11-24T21:58:34.496Z,93355.16
2022-11-24T22:01:03.030Z,93341.88
2022-11-24T22:03:30.336Z,93344.03
2022-11-24T22:05:58.558Z,93339.63
2022-11-24T22:08:26.297Z,93353.56
2022-11-24T22:10:53.277Z,93345.41
2022-11-24T22:13:20.295Z,93352.91
2022-11-24T22:15:47.026Z,93346.88
2022-11-24T22:18:13.750Z,93349.13
2022-11-24T22:20:40.552Z,93348.34
2022-11-24T22:23:07.316Z,93356.78
2022-11-24T22:25:34.337Z,93352.50
2022-11-24T22:28:01.156Z,93348.03
2022-11-24T22:30:27.921Z,93355.03
2022-11-24T22:32:54.779Z,93363.34
2022-11-24T22:35:21.520Z,93361.34
2022-11-24T22:37:48.219Z,93360.53
2022-11-24T22:40:15.045Z,93379.59
2022-11-24T22:42:41.752Z,93367.25
2022-11-24T22:45:08.988Z,93372.06
2022-11-24T22:47:35.699Z,93365.66
2022-11-24T22:50:02.475Z,93377.59
2022-11-24T22:52:29.281Z,93383.63
2022-11-24T22:54:56.096Z,93375.03
2022-11-24T22:57:22.831Z,93371.00
2022-11-24T22:59:49.545Z,93375.31
2022-11-24T23:02:16.316Z,93373.84
2022-11-24T23:04:43.088Z,93369.41
2022-11-24T23:07:09.866Z,93382.41
2022-11-24T23:09:36.636Z,93387.00
2022-11-24T23:12:03.479Z,93387.78
2022-11-24T23:14:30.296Z,93382.56
2022-11-24T23:16:57.141Z,93382.41
2022-11-24T23:19:23.922Z,93391.00
2022-11-24T23:21:50.780Z,93396.50
2022-11-24T23:24:17.723Z,93395.84
2022-11-24T23:26:44.463Z,93395.97
2022-11-24T23:29:11.687Z,93410.72
2022-11-24T23:31:40.268Z,93407.25
2022-11-24T23:34:07.157Z,93398.78
2022-11-24T23:36:33.983Z,93396.66
2022-11-24T23:39:05.919Z,93403.63
2022-11-24T23:41:33.017Z,93423.47
2022-11-24T23:44:00.241Z,93416.75
2022-11-24T23:46:27.908Z,93402.97
2022-11-24T23:48:55.528Z,93408.06
2022-11-24T23:51:27.506Z,93409.13
2022-11-24T23:53:54.962Z,93405.63
2022-11-24T23:56:24.072Z,93421.34
2022-11-24T23:58:51.271Z,93415.16
